createdAt,value
2022-10-06T00:01:23.275Z,3.47
2022-10-06T00:03:50.900Z,3.33
2022-10-06T00:06:18.898Z,3.47
2022-10-06T00:08:47.315Z,2.92
2022-10-06T00:11:16.213Z,4.05
2022-10-06T00:13:44.097Z,4.18
2022-10-06T00:16:24.685Z,3.60
2022-10-06T00:18:52.408Z,3.42
2022-10-06T00:21:20.104Z,3.30
2022-10-06T00:23:47.768Z,4.78
2022-10-06T00:26:17.228Z,4.60
2022-10-06T00:28:47.350Z,3.60
2022-10-06T00:31:16.327Z,3.72
2022-10-06T00:33:44.173Z,4.35
2022-10-06T00:36:12.035Z,3.60
2022-10-06T00:38:40.076Z,3.70
2022-10-06T00:41:15.634Z,4.07
2022-10-06T00:43:45.086Z,4.70
2022-10-06T00:46:18.879Z,3.72
2022-10-06T00:48:48.854Z,3.95
2022-10-06T00:51:16.957Z,3.88
2022-10-06T00:53:44.699Z,4.72
2022-10-06T00:56:12.808Z,3.47
2022-10-06T00:58:40.803Z,4.15
2022-10-06T01:01:09.674Z,4.00
2022-10-06T01:03:43.110Z,4.38
2022-10-06T01:06:11.404Z,4.63
2022-10-06T01:08:39.506Z,3.30
2022-10-06T01:11:13.419Z,3.95
2022-10-06T01:13:43.434Z,3.75
2022-10-06T01:16:14.907Z,4.13
2022-10-06T01:18:42.859Z,4.45
2022-10-06T01:21:14.476Z,3.97
2022-10-06T01:23:42.341Z,3.83
2022-10-06T01:26:11.729Z,3.80
2022-10-06T01:28:40.038Z,4.10
2022-10-06T01:31:08.981Z,4.65
2022-10-06T01:33:36.859Z,3.78
2022-10-06T01:36:04.956Z,3.60
2022-10-06T01:38:33.056Z,4.28
2022-10-06T01:41:04.188Z,3.17
2022-10-06T01:43:31.731Z,3.15
2022-10-06T01:45:59.936Z,3.08
2022-10-06T01:48:28.592Z,3.35
2022-10-06T01:53:26.132Z,2.60
2022-10-06T01:55:58.716Z,2.70
2022-10-06T01:58:28.307Z,3.10
2022-10-06T02:00:56.467Z,2.95
2022-10-06T02:03:25.512Z,3.03
2022-10-06T02:05:56.343Z,2.25
2022-10-06T02:08:23.954Z,3.00
2022-10-06T02:10:56.412Z,2.50
2022-10-06T02:13:27.480Z,2.40
2022-10-06T02:15:58.319Z,2.35
2022-10-06T02:18:27.011Z,2.05
2022-10-06T02:20:56.032Z,2.40
2022-10-06T02:23:23.710Z,2.03
2022-10-06T02:25:58.244Z,2.45
2022-10-06T02:28:26.626Z,2.45
2022-10-06T02:30:55.903Z,2.35
2022-10-06T02:33:23.605Z,2.08
2022-10-06T02:35:55.377Z,1.55
2022-10-06T02:38:24.258Z,1.60
2022-10-06T02:40:53.519Z,1.73
2022-10-06T02:43:22.839Z,1.85
2022-10-06T02:45:57.850Z,1.60
2022-10-06T02:48:26.754Z,1.65
2022-10-06T02:51:07.059Z,1.67
2022-10-06T02:53:35.179Z,1.50
2022-10-06T02:56:04.729Z,2.00
2022-10-06T02:58:33.090Z,1.63
2022-10-06T03:01:06.626Z,1.83
2022-10-06T03:03:35.379Z,1.67
2022-10-06T03:06:03.859Z,2.97
2022-10-06T03:08:33.677Z,2.10
2022-10-06T03:11:07.138Z,1.75
2022-10-06T03:13:34.941Z,2.00
2022-10-06T03:16:02.710Z,1.50
2022-10-06T03:18:31.567Z,1.80
2022-10-06T03:21:01.010Z,1.90
2022-10-06T03:23:29.068Z,2.15
2022-10-06T03:25:58.122Z,2.10
2022-10-06T03:28:26.710Z,2.35
2022-10-06T03:30:55.006Z,2.42
2022-10-06T03:33:22.833Z,2.30
2022-10-06T03:35:58.599Z,2.22
2022-10-06T03:38:27.515Z,2.20
2022-10-06T03:41:02.424Z,2.47
2022-10-06T03:43:30.750Z,2.00
2022-10-06T03:46:00.898Z,2.50
2022-10-06T03:48:35.108Z,2.60
2022-10-06T03:51:04.713Z,2.92
2022-10-06T03:53:33.113Z,2.47
2022-10-06T03:56:04.007Z,2.63
2022-10-06T04:01:04.760Z,2.35
2022-10-06T04:03:33.044Z,2.10
2022-10-06T04:06:03.073Z,2.65
2022-10-06T04:08:31.896Z,2.35
2022-10-06T04:11:07.270Z,2.00
2022-10-06T04:13:35.578Z,2.35
2022-10-06T04:16:15.491Z,2.10
2022-10-06T04:18:44.581Z,2.00
2022-10-06T04:21:13.163Z,2.47
2022-10-06T04:23:41.446Z,2.28
2022-10-06T04:26:11.876Z,2.67
2022-10-06T04:28:40.371Z,2.40
2022-10-06T04:31:13.193Z,2.50
2022-10-06T04:33:41.598Z,2.22
2022-10-06T04:36:10.168Z,2.47
2022-10-06T04:38:37.910Z,2.30
2022-10-06T04:41:11.980Z,2.58
2022-10-06T04:43:40.086Z,2.28
2022-10-06T04:46:30.334Z,2.08
2022-10-06T04:48:56.730Z,2.92
2022-10-06T04:51:28.339Z,2.25
2022-10-06T04:53:57.304Z,2.13
2022-10-06T04:56:27.308Z,2.38
2022-10-06T04:58:55.887Z,2.35
2022-10-06T05:01:34.437Z,2.28
2022-10-06T05:04:06.271Z,1.95
2022-10-06T05:06:36.922Z,1.73
2022-10-06T05:09:06.792Z,1.80
2022-10-06T05:11:35.301Z,2.33
2022-10-06T05:14:05.499Z,2.22
2022-10-06T05:16:38.066Z,2.13
2022-10-06T05:19:08.372Z,2.92
2022-10-06T05:21:38.814Z,2.00
2022-10-06T05:24:08.397Z,1.83
2022-10-06T05:26:37.161Z,2.03
2022-10-06T05:29:08.480Z,2.33
2022-10-06T05:31:43.102Z,2.47
2022-10-06T05:34:11.622Z,1.98
2022-10-06T05:36:40.271Z,2.20
2022-10-06T05:39:09.543Z,3.10
2022-10-06T05:42:07.726Z,1.60
2022-10-06T05:44:35.613Z,2.05
2022-10-06T05:47:08.531Z,2.08
2022-10-06T05:49:36.528Z,1.80
2022-10-06T05:52:05.565Z,3.20
2022-10-06T05:54:35.460Z,2.13
2022-10-06T05:57:03.226Z,2.22
2022-10-06T05:59:33.373Z,2.10
2022-10-06T06:02:02.275Z,2.33
2022-10-06T06:04:37.993Z,2.15
2022-10-06T06:07:06.628Z,3.25
2022-10-06T06:09:34.624Z,3.78
2022-10-06T06:12:04.483Z,3.22
2022-10-06T06:14:57.230Z,3.50
2022-10-06T06:17:32.019Z,3.83
2022-10-06T06:19:59.953Z,4.22
2022-10-06T06:22:28.410Z,4.00
2022-10-06T06:24:56.356Z,3.58
2022-10-06T06:27:26.611Z,3.97
2022-10-06T06:29:55.193Z,3.35
2022-10-06T06:32:22.862Z,3.20
2022-10-06T06:34:53.225Z,4.28
2022-10-06T06:37:30.210Z,3.70
2022-10-06T06:39:58.846Z,3.92
2022-10-06T06:42:26.648Z,4.13
2022-10-06T06:45:14.793Z,5.60
2022-10-06T06:48:21.152Z,3.22
2022-10-06T06:50:56.862Z,3.15
2022-10-06T06:53:25.512Z,3.65
2022-10-06T06:55:57.746Z,3.45
2022-10-06T06:58:25.435Z,3.60
2022-10-06T07:00:53.449Z,3.55
2022-10-06T07:03:55.543Z,3.08
2022-10-06T07:06:11.935Z,3.20
2022-10-06T07:08:44.594Z,3.63
2022-10-06T07:11:14.476Z,4.53
2022-10-06T07:13:42.993Z,3.13
2022-10-06T07:16:30.695Z,2.78
2022-10-06T07:19:20.183Z,3.30
2022-10-06T07:22:22.270Z,3.03
2022-10-06T07:25:09.279Z,2.60
2022-10-06T07:27:44.508Z,2.90
2022-10-06T07:30:19.704Z,2.88
2022-10-06T07:32:54.883Z,3.33
2022-10-06T07:35:25.048Z,3.47
2022-10-06T07:37:58.427Z,2.60
2022-10-06T07:40:26.739Z,3.25
2022-10-06T07:42:54.874Z,2.92
2022-10-06T07:45:39.377Z,3.65
2022-10-06T07:48:14.871Z,2.80
2022-10-06T07:50:45.966Z,3.50
2022-10-06T07:53:15.868Z,3.65
2022-10-06T07:55:48.654Z,3.38
2022-10-06T07:58:27.333Z,2.95
2022-10-06T08:00:55.924Z,2.85
2022-10-06T08:03:23.837Z,2.78
2022-10-06T08:05:58.519Z,3.53
2022-10-06T08:08:27.143Z,2.95
2022-10-06T08:10:56.467Z,3.20
2022-10-06T08:13:25.105Z,3.80
2022-10-06T08:15:56.424Z,3.42
2022-10-06T08:18:45.295Z,3.60
2022-10-06T08:21:18.239Z,4.63
2022-10-06T08:23:47.232Z,4.68
2022-10-06T08:26:15.862Z,6.03
2022-10-06T08:28:47.987Z,4.82
2022-10-06T08:31:16.797Z,5.95
2022-10-06T08:33:45.246Z,5.65
2022-10-06T08:36:18.087Z,4.90
2022-10-06T08:38:52.356Z,5.53
2022-10-06T08:41:21.074Z,5.30
2022-10-06T08:43:53.743Z,5.35
2022-10-06T08:46:24.748Z,5.40
2022-10-06T08:48:53.036Z,4.22
2022-10-06T08:51:30.377Z,4.45
2022-10-06T08:54:22.055Z,4.60
2022-10-06T08:57:10.061Z,4.60
2022-10-06T08:59:38.253Z,5.15
2022-10-06T09:02:17.232Z,5.28
2022-10-06T09:04:45.147Z,4.97
2022-10-06T09:07:17.421Z,4.68
2022-10-06T09:10:04.433Z,4.35
2022-10-06T09:12:36.498Z,3.97
2022-10-06T09:15:06.395Z,4.38
2022-10-06T09:17:37.806Z,4.65
2022-10-06T09:20:09.570Z,4.07
2022-10-06T09:22:38.290Z,4.38
2022-10-06T09:25:20.388Z,4.00
2022-10-06T09:27:50.748Z,4.28
2022-10-06T09:30:18.919Z,4.55
2022-10-06T09:32:48.131Z,4.18
2022-10-06T09:35:25.569Z,4.93
2022-10-06T09:37:53.822Z,4.53
2022-10-06T09:40:51.443Z,3.95
2022-10-06T09:43:23.859Z,4.90
2022-10-06T09:45:51.935Z,2.90
2022-10-06T09:48:24.753Z,3.95
2022-10-06T09:51:07.585Z,3.53
2022-10-06T09:53:37.727Z,3.97
2022-10-06T09:56:10.323Z,5.90
2022-10-06T09:58:39.460Z,4.03
2022-10-06T10:01:12.504Z,4.65
2022-10-06T10:03:47.854Z,5.25
2022-10-06T10:06:37.846Z,4.53
2022-10-06T10:09:22.350Z,4.55
2022-10-06T10:12:31.142Z,5.30
2022-10-06T10:14:58.961Z,4.50
2022-10-06T10:17:41.032Z,4.70
2022-10-06T10:20:23.267Z,5.03
2022-10-06T10:22:51.855Z,6.20
2022-10-06T10:25:25.714Z,7.07
2022-10-06T10:27:56.695Z,5.68
2022-10-06T10:32:52.393Z,4.82
2022-10-06T10:35:42.106Z,7.00
2022-10-06T10:38:20.756Z,5.10
2022-10-06T10:40:51.668Z,4.93
2022-10-06T10:43:20.339Z,4.35
2022-10-06T10:45:51.741Z,4.35
2022-10-06T10:48:24.076Z,3.90
2022-10-06T10:50:59.023Z,6.10
2022-10-06T10:53:27.150Z,5.03
2022-10-06T10:55:55.342Z,4.63
2022-10-06T10:58:29.311Z,4.10
2022-10-06T11:01:00.873Z,3.60
2022-10-06T11:03:28.495Z,4.55
2022-10-06T11:05:59.679Z,4.00
2022-10-06T11:08:38.713Z,4.13
2022-10-06T11:11:12.881Z,3.65
2022-10-06T11:13:49.775Z,3.00
2022-10-06T11:16:19.275Z,3.50
2022-10-06T11:18:47.237Z,4.00
2022-10-06T11:21:17.801Z,3.05
2022-10-06T11:23:57.916Z,2.78
2022-10-06T11:26:36.094Z,4.00
2022-10-06T11:29:22.809Z,2.83
2022-10-06T11:31:58.270Z,3.28
2022-10-06T11:34:26.073Z,2.97
2022-10-06T11:37:01.663Z,3.60
2022-10-06T11:39:32.388Z,3.60
2022-10-06T11:44:28.480Z,2.63
2022-10-06T11:47:01.995Z,2.45
2022-10-06T11:49:29.775Z,3.05
2022-10-06T11:52:00.151Z,2.70
2022-10-06T11:54:35.579Z,2.35
2022-10-06T11:57:03.866Z,2.65
2022-10-06T11:59:31.749Z,2.50
2022-10-06T12:02:00.899Z,2.38
2022-10-06T12:04:28.922Z,2.58
2022-10-06T12:06:58.006Z,2.20
2022-10-06T12:09:51.687Z,2.05
2022-10-06T12:12:20.081Z,1.60
2022-10-06T12:17:55.318Z,2.13
2022-10-06T12:20:36.186Z,1.70
2022-10-06T12:23:10.389Z,1.73
2022-10-06T12:25:44.287Z,2.05
2022-10-06T12:28:21.572Z,1.95
2022-10-06T12:31:08.296Z,2.78
2022-10-06T12:33:40.890Z,2.53
2022-10-06T12:36:19.009Z,1.80
2022-10-06T12:39:08.258Z,1.80
2022-10-06T12:41:55.038Z,1.98
2022-10-06T12:44:24.256Z,1.75
2022-10-06T12:46:52.854Z,1.80
2022-10-06T12:49:46.862Z,1.75
2022-10-06T12:52:38.643Z,1.63
2022-10-06T12:55:15.319Z,1.58
2022-10-06T12:57:53.954Z,1.85
2022-10-06T13:00:33.395Z,2.15
2022-10-06T13:03:03.362Z,1.92
2022-10-06T13:05:31.446Z,2.33
2022-10-06T13:08:02.450Z,1.90
2022-10-06T13:10:30.781Z,1.58
2022-10-06T13:12:59.137Z,2.35
2022-10-06T13:15:38.233Z,2.35
2022-10-06T13:18:09.242Z,2.22
2022-10-06T13:20:54.698Z,3.75
2022-10-06T13:23:30.309Z,1.88
2022-10-06T13:25:59.228Z,2.45
2022-10-06T13:28:33.034Z,2.78
2022-10-06T13:33:34.244Z,2.78
2022-10-06T13:36:02.916Z,2.13
2022-10-06T13:38:35.263Z,2.08
2022-10-06T13:41:06.246Z,1.92
2022-10-06T13:43:39.810Z,2.33
2022-10-06T13:46:09.450Z,2.03
2022-10-06T13:48:37.844Z,2.47
2022-10-06T13:53:52.373Z,2.22
2022-10-06T13:56:39.736Z,3.13
2022-10-06T13:59:19.689Z,2.42
2022-10-06T14:01:48.334Z,2.47
2022-10-06T14:04:20.561Z,2.00
2022-10-06T14:06:52.553Z,1.92
2022-10-06T14:09:25.351Z,2.22
2022-10-06T14:11:54.657Z,2.45
2022-10-06T14:14:22.442Z,2.47
2022-10-06T14:16:51.584Z,1.77
2022-10-06T14:19:34.172Z,2.30
2022-10-06T14:22:02.571Z,2.30
2022-10-06T14:24:34.218Z,1.80
2022-10-06T14:27:03.007Z,3.50
2022-10-06T14:29:31.708Z,2.50
2022-10-06T14:32:09.747Z,2.30
2022-10-06T14:34:37.486Z,1.95
2022-10-06T14:37:05.153Z,4.70
2022-10-06T14:39:33.342Z,2.42
2022-10-06T14:42:01.395Z,2.83
2022-10-06T14:44:29.114Z,2.03
2022-10-06T14:46:58.324Z,1.70
2022-10-06T14:49:26.392Z,2.17
2022-10-06T14:51:56.620Z,2.47
2022-10-06T14:54:24.427Z,1.90
2022-10-06T14:56:54.864Z,2.30
2022-10-06T14:59:22.839Z,2.47
2022-10-06T15:01:50.833Z,2.88
2022-10-06T15:04:19.574Z,2.08
2022-10-06T15:07:06.407Z,2.25
2022-10-06T15:09:34.115Z,1.88
2022-10-06T15:12:02.120Z,1.83
2022-10-06T15:14:29.917Z,1.60
2022-10-06T15:17:01.018Z,2.30
2022-10-06T15:19:29.060Z,1.77
2022-10-06T15:21:57.157Z,2.58
2022-10-06T15:24:25.331Z,2.65
2022-10-06T15:27:12.369Z,2.63
2022-10-06T15:29:40.107Z,1.75
2022-10-06T15:37:39.687Z,1.50
2022-10-06T15:40:07.554Z,2.08
2022-10-06T15:42:35.213Z,1.73
2022-10-06T15:45:07.488Z,2.00
2022-10-06T15:47:35.749Z,1.92
2022-10-06T15:50:06.593Z,2.28
2022-10-06T15:52:35.069Z,2.10
2022-10-06T15:55:07.117Z,2.00
2022-10-06T15:57:35.522Z,1.73
2022-10-06T16:00:03.781Z,1.58
2022-10-06T16:02:40.551Z,1.33
2022-10-06T16:05:08.865Z,2.65
2022-10-06T16:07:36.456Z,1.65
2022-10-06T16:10:04.338Z,2.35
2022-10-06T16:12:32.925Z,2.10
2022-10-06T16:15:01.346Z,1.50
2022-10-06T16:17:29.251Z,1.10
2022-10-06T16:19:56.987Z,1.83
2022-10-06T16:22:25.025Z,2.17
2022-10-06T16:24:52.692Z,1.42
2022-10-06T16:27:20.454Z,2.78
2022-10-06T16:29:48.299Z,1.63
2022-10-06T16:32:17.222Z,1.70
2022-10-06T16:34:50.221Z,1.90
2022-10-06T16:37:17.918Z,1.67
2022-10-06T16:39:45.533Z,2.85
2022-10-06T16:42:13.269Z,1.88
2022-10-06T16:44:40.984Z,2.33
2022-10-06T16:47:08.833Z,3.20
2022-10-06T16:49:36.530Z,1.77
2022-10-06T16:52:04.099Z,2.10
2022-10-06T16:54:31.663Z,1.67
2022-10-06T16:57:02.128Z,1.50
2022-10-06T16:59:31.299Z,3.17
2022-10-06T17:01:58.970Z,1.85
2022-10-06T17:04:26.969Z,2.30
2022-10-06T17:06:55.867Z,2.78
2022-10-06T17:09:24.710Z,2.30
2022-10-06T17:11:53.822Z,1.55
2022-10-06T17:14:21.682Z,2.03
2022-10-06T17:16:50.877Z,2.08
2022-10-06T17:19:19.368Z,2.83
2022-10-06T17:21:51.563Z,2.30
2022-10-06T17:24:21.308Z,1.85
2022-10-06T17:26:51.790Z,2.83
2022-10-06T17:29:21.518Z,2.90
2022-10-06T17:31:50.725Z,1.58
2022-10-06T17:34:21.966Z,2.15
2022-10-06T17:36:52.484Z,1.98
2022-10-06T17:39:21.499Z,3.00
2022-10-06T17:41:50.438Z,2.55
2022-10-06T17:44:21.978Z,2.80
2022-10-06T17:46:55.602Z,2.80
2022-10-06T17:49:24.562Z,2.28
2022-10-06T17:51:53.506Z,3.10
2022-10-06T17:54:22.034Z,2.70
2022-10-06T17:56:50.927Z,2.58
2022-10-06T17:59:28.655Z,2.83
2022-10-06T18:01:57.468Z,3.70
2022-10-06T18:04:27.120Z,3.08
2022-10-06T18:06:58.268Z,3.10
2022-10-06T18:09:26.447Z,2.92
2022-10-06T18:11:59.839Z,3.45
2022-10-06T18:14:29.249Z,3.05
2022-10-06T18:16:59.901Z,2.90
2022-10-06T18:19:29.871Z,2.50
2022-10-06T18:22:00.407Z,2.60
2022-10-06T18:24:29.295Z,2.53
2022-10-06T18:26:58.071Z,3.08
2022-10-06T18:29:28.130Z,3.35
2022-10-06T18:32:01.341Z,3.17
2022-10-06T18:37:24.706Z,4.35
2022-10-06T18:39:52.442Z,4.20
2022-10-06T18:42:20.192Z,4.75
2022-10-06T18:45:06.455Z,3.28
2022-10-06T18:47:52.651Z,2.47
2022-10-06T18:50:20.395Z,2.70
2022-10-06T18:52:48.113Z,12.30
2022-10-06T18:55:15.864Z,3.67
2022-10-06T18:57:45.333Z,2.58
2022-10-06T19:00:13.698Z,2.47
2022-10-06T19:02:46.171Z,5.75
2022-10-06T19:05:17.460Z,17.80
2022-10-06T19:07:45.640Z,11.95
2022-10-06T19:10:14.179Z,10.57
2022-10-06T19:12:41.968Z,6.65
2022-10-06T19:15:10.125Z,4.53
2022-10-06T19:17:41.127Z,3.08
2022-10-06T19:20:11.231Z,4.10
2022-10-06T19:22:39.292Z,5.32
2022-10-06T19:25:07.181Z,3.30
2022-10-06T19:27:36.060Z,3.60
2022-10-06T19:30:03.853Z,3.10
2022-10-06T19:32:35.484Z,3.63
2022-10-06T19:35:07.704Z,4.20
2022-10-06T19:37:38.123Z,3.17
2022-10-06T19:40:08.536Z,3.92
2022-10-06T19:42:48.500Z,3.50
2022-10-06T19:45:16.636Z,3.42
2022-10-06T19:47:45.496Z,3.90
2022-10-06T19:50:13.704Z,4.53
2022-10-06T19:52:41.733Z,4.72
2022-10-06T19:55:09.419Z,3.05
2022-10-06T19:57:37.400Z,2.85
2022-10-06T20:00:06.037Z,3.22
2022-10-06T20:02:42.740Z,2.67
2022-10-06T20:05:15.477Z,3.08
2022-10-06T20:07:45.089Z,2.40
2022-10-06T20:10:13.816Z,2.95
2022-10-06T20:12:41.921Z,2.97
2022-10-06T20:15:10.455Z,2.97
2022-10-06T20:17:38.194Z,3.72
2022-10-06T20:20:06.130Z,2.90
2022-10-06T20:22:33.832Z,2.95
2022-10-06T20:25:02.453Z,3.15
2022-10-06T20:27:33.479Z,3.78
2022-10-06T20:32:31.553Z,3.35
2022-10-06T20:34:59.411Z,3.40
2022-10-06T20:37:30.431Z,2.83
2022-10-06T20:42:51.397Z,2.67
2022-10-06T20:45:22.001Z,3.15
2022-10-06T20:47:58.327Z,3.05
2022-10-06T20:50:26.064Z,3.22
2022-10-06T20:52:54.681Z,3.40
2022-10-06T20:55:24.622Z,3.13
2022-10-06T20:57:53.413Z,3.40
2022-10-06T21:00:25.548Z,2.90
2022-10-06T21:02:56.939Z,4.53
2022-10-06T21:05:24.670Z,3.63
2022-10-06T21:07:52.406Z,3.30
2022-10-06T21:10:24.201Z,2.80
2022-10-06T21:12:51.897Z,2.92
2022-10-06T21:15:20.334Z,3.22
2022-10-06T21:17:51.182Z,3.10
2022-10-06T21:20:25.180Z,2.95
2022-10-06T21:22:56.010Z,3.25
2022-10-06T21:25:26.960Z,3.05
2022-10-06T21:27:57.099Z,3.45
2022-10-06T21:30:25.059Z,3.70
2022-10-06T21:33:06.260Z,4.25
2022-10-06T21:35:34.486Z,3.28
2022-10-06T21:38:04.711Z,3.35
2022-10-06T21:40:35.859Z,3.30
2022-10-06T21:43:04.273Z,3.63
2022-10-06T21:45:33.121Z,4.00
2022-10-06T21:48:01.217Z,3.85
2022-10-06T21:50:29.084Z,4.20
2022-10-06T21:52:56.790Z,4.60
2022-10-06T21:55:24.454Z,2.90
2022-10-06T21:57:52.407Z,3.10
2022-10-06T22:00:20.475Z,4.95
2022-10-06T22:02:48.258Z,3.00
2022-10-06T22:05:16.316Z,2.55
2022-10-06T22:07:44.989Z,3.03
2022-10-06T22:10:12.988Z,3.25
2022-10-06T22:12:41.088Z,3.00
2022-10-06T22:15:08.838Z,3.58
2022-10-06T22:17:37.283Z,3.70
2022-10-06T22:20:05.300Z,3.08
2022-10-06T22:22:33.003Z,3.22
2022-10-06T22:25:00.859Z,2.88
2022-10-06T22:27:28.614Z,2.88
2022-10-06T22:29:56.179Z,3.88
2022-10-06T22:32:24.724Z,3.20
2022-10-06T22:34:53.075Z,3.30
2022-10-06T22:37:21.209Z,3.30
2022-10-06T22:39:48.947Z,3.47
2022-10-06T22:42:16.723Z,2.65
2022-10-06T22:44:44.470Z,3.22
2022-10-06T22:47:12.173Z,3.03
2022-10-06T22:49:39.741Z,3.42
2022-10-06T22:52:07.719Z,3.13
2022-10-06T22:54:35.427Z,3.00
2022-10-06T22:57:05.067Z,3.58
2022-10-06T22:59:32.735Z,2.97
2022-10-06T23:02:00.392Z,3.45
2022-10-06T23:04:28.129Z,3.70
2022-10-06T23:06:55.909Z,4.10
2022-10-06T23:09:23.616Z,3.25
2022-10-06T23:11:51.281Z,3.47
2022-10-06T23:14:18.949Z,2.75
2022-10-06T23:16:46.784Z,2.92
2022-10-06T23:19:14.531Z,3.10
2022-10-06T23:21:42.199Z,3.05
2022-10-06T23:24:09.880Z,3.47
2022-10-06T23:26:37.809Z,3.28
2022-10-06T23:29:06.716Z,3.58
2022-10-06T23:31:34.391Z,2.50
2022-10-06T23:34:02.175Z,2.78
2022-10-06T23:36:30.207Z,3.13
2022-10-06T23:38:58.195Z,2.90
2022-10-06T23:41:25.979Z,3.47
2022-10-06T23:43:54.255Z,3.47
2022-10-06T23:46:22.155Z,2.70
2022-10-06T23:48:49.867Z,3.70
2022-10-06T23:51:17.975Z,3.17
2022-10-06T23:53:45.627Z,2.75
2022-10-06T23:56:14.075Z,2.53
2022-10-06T23:58:42.779Z,2.25
